Time;durP1;ratioP1;P1;durP2;ratioP2;P2;SDS_P1;SDS_P2;PMS_P1;PMS_P2;Temp;Humidity;BMP_temperature;BMP_pressure;BME280_temperature;BME280_humidity;BME280_pressure;Samples;Min_cycle;Max_cycle;Signal;HPM_P1;HPM_P2
2021/09/06 00:01:22;;;;;;;4.20;2.92;;;13.80;99.90;;;;;;5051375;28;20464;-69
2021/09/06 00:03:50;;;;;;;3.53;2.83;;;13.70;99.90;;;;;;5050841;28;20458;-68
2021/09/06 00:06:17;;;;;;;4.07;2.90;;;13.60;99.90;;;;;;5053939;28;20076;-69
2021/09/06 00:08:44;;;;;;;4.63;3.40;;;13.60;99.90;;;;;;5055229;28;20120;-68
2021/09/06 00:11:12;;;;;;;3.08;2.50;;;13.50;99.90;;;;;;5055503;28;20076;-68
2021/09/06 00:13:41;;;;;;;4.15;2.65;;;13.50;99.90;;;;;;5055038;28;20073;-69
2021/09/06 00:16:08;;;;;;;4.30;2.95;;;13.40;99.90;;;;;;5055231;28;20083;-69
2021/09/06 00:18:34;;;;;;;3.67;2.50;;;13.40;99.90;;;;;;5055252;28;20463;-69
2021/09/06 00:21:06;;;;;;;5.47;2.97;;;13.40;99.90;;;;;;5055766;28;20537;-69
2021/09/06 00:23:33;;;;;;;3.13;2.83;;;13.40;99.90;;;;;;5054608;28;20041;-69
2021/09/06 00:26:00;;;;;;;6.78;3.17;;;13.40;99.90;;;;;;5055128;28;20075;-70
2021/09/06 00:28:27;;;;;;;3.42;2.72;;;13.40;99.90;;;;;;5054370;28;20084;-70
2021/09/06 00:30:54;;;;;;;3.63;2.78;;;13.40;99.90;;;;;;5057368;28;20380;-68
2021/09/06 00:33:20;;;;;;;3.42;3.13;;;13.30;99.90;;;;;;5053751;28;20051;-68
2021/09/06 00:35:48;;;;;;;3.42;2.90;;;13.40;99.90;;;;;;5054428;28;20481;-68
2021/09/06 00:38:17;;;;;;;2.53;2.20;;;13.40;99.90;;;;;;5055033;28;20103;-68
2021/09/06 00:40:44;;;;;;;2.88;2.67;;;13.30;99.90;;;;;;5055117;28;20091;-67
2021/09/06 00:43:10;;;;;;;3.50;2.78;;;13.30;99.90;;;;;;5054243;28;20451;-68
2021/09/06 00:45:38;;;;;;;3.72;2.72;;;13.20;99.90;;;;;;5054722;28;20077;-69
2021/09/06 00:48:05;;;;;;;5.85;2.70;;;13.10;99.90;;;;;;5054710;28;20049;-68
2021/09/06 00:50:32;;;;;;;4.65;3.15;;;13.10;99.90;;;;;;5054460;28;20086;-69
2021/09/06 00:52:58;;;;;;;3.08;2.50;;;13.00;99.90;;;;;;5054737;28;20076;-69
2021/09/06 00:55:26;;;;;;;5.45;3.30;;;13.00;99.90;;;;;;5054044;28;20072;-69
2021/09/06 00:57:53;;;;;;;3.70;2.60;;;12.90;99.90;;;;;;5055117;28;20098;-69
2021/09/06 01:00:20;;;;;;;3.63;2.47;;;12.90;99.90;;;;;;5054528;28;20087;-69
2021/09/06 01:02:47;;;;;;;3.47;3.17;;;12.90;99.90;;;;;;5054386;28;20045;-68
2021/09/06 01:05:15;;;;;;;4.97;3.55;;;12.90;99.90;;;;;;5053703;28;20087;-69
2021/09/06 01:07:42;;;;;;;4.25;2.60;;;12.80;99.90;;;;;;5064288;28;20083;-69
2021/09/06 01:10:12;;;;;;;9.82;3.10;;;12.80;99.90;;;;;;5074261;28;20478;-69
2021/09/06 01:12:40;;;;;;;3.83;2.78;;;12.80;99.90;;;;;;5074138;28;20484;-69
2021/09/06 01:15:09;;;;;;;5.90;2.55;;;12.90;99.90;;;;;;5073668;28;20135;-69
2021/09/06 01:17:36;;;;;;;3.75;3.25;;;12.90;99.90;;;;;;5061636;28;20073;-69
2021/09/06 01:20:04;;;;;;;5.10;2.92;;;12.80;99.90;;;;;;5053200;28;20077;-69
2021/09/06 01:22:30;;;;;;;3.75;3.13;;;12.80;99.90;;;;;;5049104;28;20132;-69
2021/09/06 01:24:57;;;;;;;3.42;2.72;;;12.80;99.90;;;;;;5033651;28;20069;-69
2021/09/06 01:27:25;;;;;;;3.53;2.75;;;12.70;99.90;;;;;;5035248;28;20476;-69
2021/09/06 01:29:52;;;;;;;3.83;2.55;;;12.60;99.90;;;;;;5045453;28;20102;-69
2021/09/06 01:32:19;;;;;;;4.50;2.80;;;12.60;99.90;;;;;;5074071;28;20095;-68
2021/09/06 01:34:45;;;;;;;4.47;2.50;;;12.50;99.90;;;;;;5056584;28;20471;-68
2021/09/06 01:37:12;;;;;;;3.92;3.10;;;12.50;99.90;;;;;;5073901;28;20075;-68
2021/09/06 01:39:39;;;;;;;3.15;2.70;;;12.50;99.90;;;;;;5061828;28;20481;-68
2021/09/06 01:42:05;;;;;;;2.90;2.67;;;12.50;99.90;;;;;;5053617;28;20091;-68
2021/09/06 01:44:33;;;;;;;4.65;2.72;;;12.40;99.90;;;;;;5052952;28;20088;-68
2021/09/06 01:47:00;;;;;;;4.28;3.08;;;12.30;99.90;;;;;;5053831;28;20100;-68
2021/09/06 01:49:26;;;;;;;3.15;2.80;;;12.20;99.90;;;;;;5053396;28;20489;-67
2021/09/06 01:51:53;;;;;;;3.95;2.70;;;12.20;99.90;;;;;;5056634;28;20519;-68
2021/09/06 01:54:19;;;;;;;3.30;2.72;;;12.20;99.90;;;;;;5052197;28;20171;-69
2021/09/06 01:56:46;;;;;;;3.38;3.08;;;12.20;99.90;;;;;;5033435;28;20501;-68
2021/09/06 01:59:12;;;;;;;4.70;2.63;;;12.10;99.90;;;;;;5046633;28;20513;-69
2021/09/06 02:01:40;;;;;;;4.82;3.03;;;12.00;99.90;;;;;;5033550;28;20156;-69
2021/09/06 02:04:07;;;;;;;6.25;3.70;;;12.00;99.90;;;;;;5032880;28;20081;-68
2021/09/06 02:06:34;;;;;;;3.60;3.08;;;11.90;99.90;;;;;;5033500;28;20113;-68
2021/09/06 02:09:00;;;;;;;3.83;2.97;;;11.90;99.90;;;;;;5050465;28;20076;-68
2021/09/06 02:11:27;;;;;;;4.10;2.63;;;11.80;99.90;;;;;;5053142;28;20080;-68
2021/09/06 02:13:54;;;;;;;4.72;3.35;;;11.70;99.90;;;;;;5051796;28;20049;-68
2021/09/06 02:16:21;;;;;;;3.05;2.75;;;11.70;99.90;;;;;;5053233;28;20137;-69
2021/09/06 02:18:49;;;;;;;4.05;2.97;;;11.70;99.90;;;;;;5053014;28;20111;-68
2021/09/06 02:21:15;;;;;;;5.60;3.17;;;11.70;99.90;;;;;;5068388;28;20045;-69
2021/09/06 02:23:42;;;;;;;5.10;3.30;;;11.60;99.90;;;;;;5057867;28;20094;-68
2021/09/06 02:26:08;;;;;;;3.92;3.03;;;11.60;99.90;;;;;;5052662;28;20072;-68
2021/09/06 02:28:35;;;;;;;5.07;2.85;;;11.60;99.90;;;;;;5051789;28;20072;-68
2021/09/06 02:31:02;;;;;;;5.45;3.13;;;11.60;99.90;;;;;;5052912;28;20079;-67
2021/09/06 02:33:28;;;;;;;5.95;3.35;;;11.60;99.90;;;;;;5052172;28;20098;-67
2021/09/06 02:35:56;;;;;;;3.85;3.45;;;11.50;99.90;;;;;;5052731;28;20103;-68
2021/09/06 02:38:23;;;;;;;5.43;3.78;;;11.40;99.90;;;;;;5052571;28;20068;-69
2021/09/06 02:40:49;;;;;;;3.75;3.22;;;11.30;99.90;;;;;;5052450;28;20049;-67
2021/09/06 02:43:16;;;;;;;3.50;3.20;;;11.30;99.90;;;;;;5051741;28;20081;-68
2021/09/06 02:45:42;;;;;;;4.90;3.28;;;11.30;99.90;;;;;;5052567;28;20079;-68
2021/09/06 02:48:09;;;;;;;4.20;3.17;;;11.30;99.90;;;;;;5060315;28;20331;-68
2021/09/06 02:50:35;;;;;;;5.88;2.97;;;11.20;99.90;;;;;;5067395;28;20091;-68
2021/09/06 02:53:03;;;;;;;4.38;3.55;;;11.20;99.90;;;;;;5052279;28;20095;-68
2021/09/06 02:55:30;;;;;;;4.63;3.70;;;11.20;99.90;;;;;;5051070;28;20069;-68
2021/09/06 02:57:56;;;;;;;3.95;3.55;;;11.10;99.90;;;;;;5042461;28;20103;-67
2021/09/06 03:00:25;;;;;;;7.03;3.30;;;11.20;99.90;;;;;;5032394;28;20049;-67
2021/09/06 03:02:51;;;;;;;5.75;3.55;;;11.10;99.90;;;;;;5032289;28;20045;-68
2021/09/06 03:05:18;;;;;;;3.15;2.72;;;11.20;99.90;;;;;;5031657;28;20505;-67
2021/09/06 03:07:45;;;;;;;5.07;3.60;;;11.20;99.90;;;;;;5032129;28;20076;-68
2021/09/06 03:10:12;;;;;;;4.05;3.20;;;11.20;99.90;;;;;;5036937;28;20080;-67
2021/09/06 03:12:39;;;;;;;4.25;3.13;;;11.10;99.90;;;;;;5052126;28;20453;-67
2021/09/06 03:15:06;;;;;;;4.50;3.95;;;11.10;99.90;;;;;;5051927;28;20076;-68
2021/09/06 03:17:33;;;;;;;6.13;4.18;;;11.10;99.90;;;;;;5072059;28;20076;-68
2021/09/06 03:19:59;;;;;;;6.22;3.47;;;11.10;99.90;;;;;;5056353;28;20102;-68
2021/09/06 03:22:26;;;;;;;3.65;3.17;;;11.10;99.90;;;;;;5051705;28;20453;-68
2021/09/06 03:24:52;;;;;;;3.88;3.40;;;11.10;99.90;;;;;;5051178;28;20044;-68
2021/09/06 03:27:20;;;;;;;6.38;3.65;;;11.10;99.90;;;;;;5051968;28;20076;-68
2021/09/06 03:29:47;;;;;;;6.88;3.40;;;11.00;99.90;;;;;;5051676;28;20139;-68
2021/09/06 03:32:13;;;;;;;4.43;3.65;;;11.00;99.90;;;;;;5051609;28;20103;-67
2021/09/06 03:34:40;;;;;;;5.13;3.80;;;11.00;99.90;;;;;;5051075;28;20045;-68
2021/09/06 03:37:07;;;;;;;4.18;3.38;;;11.00;99.90;;;;;;5051381;28;20077;-67
2021/09/06 03:39:33;;;;;;;5.32;3.50;;;10.90;99.90;;;;;;5051772;28;20076;-69
2021/09/06 03:42:00;;;;;;;5.55;3.72;;;10.90;99.90;;;;;;5045801;28;20477;-68
2021/09/06 03:44:28;;;;;;;4.45;3.53;;;10.90;99.90;;;;;;5058101;28;20134;-68
2021/09/06 03:46:55;;;;;;;4.28;3.50;;;10.80;99.90;;;;;;5068641;28;20151;-68
2021/09/06 03:49:21;;;;;;;5.78;3.50;;;10.80;99.90;;;;;;5031425;28;20116;-67
2021/09/06 03:51:48;;;;;;;4.43;4.03;;;10.80;99.90;;;;;;5036287;28;20072;-68
2021/09/06 03:54:14;;;;;;;5.60;3.35;;;10.80;99.90;;;;;;5050984;28;20075;-67
2021/09/06 03:56:41;;;;;;;5.93;4.03;;;10.70;99.90;;;;;;5051459;28;20085;-68
2021/09/06 03:59:07;;;;;;;4.68;3.58;;;10.70;99.90;;;;;;5051447;28;20140;-69
2021/09/06 04:01:35;;;;;;;7.70;3.55;;;10.60;99.90;;;;;;5051274;28;20504;-69
2021/09/06 04:04:02;;;;;;;6.43;5.22;;;10.50;99.90;;;;;;5050721;28;20076;-68
2021/09/06 04:06:28;;;;;;;5.57;4.20;;;10.50;99.90;;;;;;5050988;28;20044;-69
2021/09/06 04:08:55;;;;;;;5.65;4.18;;;10.60;99.90;;;;;;5071361;28;20041;-68
2021/09/06 04:11:22;;;;;;;4.25;3.75;;;10.60;99.90;;;;;;5054423;28;20095;-68
2021/09/06 04:13:48;;;;;;;4.25;3.83;;;10.60;99.90;;;;;;5050814;28;20049;-68
2021/09/06 04:16:15;;;;;;;5.75;4.22;;;10.50;99.90;;;;;;5051229;28;20073;-67
2021/09/06 04:18:42;;;;;;;4.25;3.78;;;10.50;99.90;;;;;;5051190;28;20068;-67
2021/09/06 04:21:09;;;;;;;5.82;4.63;;;10.40;99.90;;;;;;5050906;28;20087;-67
2021/09/06 04:23:36;;;;;;;5.50;3.88;;;10.40;99.90;;;;;;5050789;28;20077;-69
2021/09/06 04:26:03;;;;;;;4.85;4.30;;;10.40;99.90;;;;;;5050916;28;20045;-68
2021/09/06 04:28:29;;;;;;;4.25;3.75;;;10.30;99.90;;;;;;5051217;28;20080;-69
2021/09/06 04:30:56;;;;;;;4.93;3.58;;;10.30;99.90;;;;;;5050969;28;20467;-69
2021/09/06 04:33:23;;;;;;;5.03;4.05;;;10.30;99.90;;;;;;5050365;28;20045;-69
2021/09/06 04:35:51;;;;;;;14.45;4.55;;;10.30;99.90;;;;;;5063318;28;20076;-68
2021/09/06 04:38:18;;;;;;;5.15;4.13;;;10.30;99.90;;;;;;5043463;28;20115;-69
2021/09/06 04:40:44;;;;;;;5.97;4.25;;;10.30;99.90;;;;;;5031128;28;20072;-69
2021/09/06 04:43:11;;;;;;;7.15;4.47;;;10.20;99.90;;;;;;5036629;28;20076;-68
2021/09/06 04:45:37;;;;;;;5.13;4.10;;;10.20;99.90;;;;;;5031499;28;20080;-68
2021/09/06 04:48:05;;;;;;;7.78;5.10;;;10.20;99.90;;;;;;5030994;28;20084;-67
2021/09/06 04:50:32;;;;;;;7.75;4.57;;;10.20;99.90;;;;;;5031053;28;20076;-67
2021/09/06 04:53:00;;;;;;;5.65;3.97;;;10.20;99.90;;;;;;5048111;28;20045;-67
2021/09/06 04:55:26;;;;;;;5.75;4.00;;;10.20;99.90;;;;;;5054048;28;20072;-68
2021/09/06 04:57:53;;;;;;;7.95;4.68;;;10.20;99.90;;;;;;5054352;28;20455;-67
2021/09/06 05:00:19;;;;;;;6.60;4.15;;;10.20;99.90;;;;;;5054265;28;20501;-67
2021/09/06 05:02:46;;;;;;;5.75;4.45;;;10.20;99.90;;;;;;5054446;28;20045;-67
2021/09/06 05:05:12;;;;;;;7.65;5.25;;;10.30;99.90;;;;;;5053803;28;20044;-69
2021/09/06 05:07:39;;;;;;;6.47;4.00;;;10.30;99.90;;;;;;5054040;28;20087;-69
2021/09/06 05:10:08;;;;;;;5.43;4.88;;;10.40;99.90;;;;;;5060582;28;20076;-69
2021/09/06 05:12:34;;;;;;;5.53;4.32;;;10.50;99.90;;;;;;5063125;28;20094;-69
2021/09/06 05:15:01;;;;;;;7.15;3.88;;;10.50;99.90;;;;;;5057663;28;20045;-68
2021/09/06 05:17:27;;;;;;;4.45;3.88;;;10.60;99.90;;;;;;5054122;28;20076;-69
2021/09/06 05:19:54;;;;;;;4.72;4.22;;;10.70;99.90;;;;;;5054027;28;20453;-68
2021/09/06 05:22:20;;;;;;;10.45;4.65;;;10.80;99.90;;;;;;5054052;28;20445;-69
2021/09/06 05:24:47;;;;;;;4.70;3.75;;;10.80;99.90;;;;;;5053450;28;20076;-69
2021/09/06 05:27:15;;;;;;;6.72;4.10;;;10.90;99.90;;;;;;5052654;28;20052;-69
2021/09/06 05:29:41;;;;;;;5.35;4.18;;;10.90;99.90;;;;;;5053294;28;20075;-69
2021/09/06 05:32:08;;;;;;;7.15;4.53;;;11.00;99.90;;;;;;5053904;28;20103;-70
2021/09/06 05:34:34;;;;;;;6.70;4.13;;;11.10;99.90;;;;;;5053224;28;20080;-70
2021/09/06 05:37:01;;;;;;;5.72;4.60;;;11.20;99.90;;;;;;5053711;28;20092;-68
2021/09/06 05:39:27;;;;;;;5.97;3.70;;;11.30;99.90;;;;;;5053682;28;20072;-68
2021/09/06 05:41:54;;;;;;;5.00;4.35;;;11.30;99.90;;;;;;5053569;28;20087;-68
2021/09/06 05:44:22;;;;;;;6.82;4.75;;;11.40;99.90;;;;;;5048389;28;20069;-68
2021/09/06 05:46:48;;;;;;;4.28;3.88;;;11.60;99.90;;;;;;5051514;28;20112;-68
2021/09/06 05:49:15;;;;;;;5.05;3.15;;;11.80;99.90;;;;;;5033878;28;20041;-68
2021/09/06 05:51:41;;;;;;;4.38;3.95;;;12.00;99.90;;;;;;5060983;28;20111;-69
2021/09/06 05:54:08;;;;;;;4.90;3.83;;;12.20;99.90;;;;;;5072865;28;20072;-69
2021/09/06 05:56:35;;;;;;;5.75;4.18;;;12.40;99.90;;;;;;5072203;28;20118;-70
2021/09/06 05:59:01;;;;;;;7.45;3.63;;;12.70;99.90;;;;;;5053533;28;20144;-70
2021/09/06 06:01:29;;;;;;;4.78;3.40;;;13.00;99.90;;;;;;5053357;28;20095;-62
2021/09/06 06:03:55;;;;;;;7.80;3.78;;;13.30;99.90;;;;;;5045705;28;20081;-60
2021/09/06 06:06:22;;;;;;;5.53;4.00;;;13.60;99.90;;;;;;5053267;28;20076;-64
2021/09/06 06:08:49;;;;;;;3.60;2.97;;;13.90;99.90;;;;;;5053163;28;20077;-64
2021/09/06 06:11:15;;;;;;;5.38;3.28;;;14.30;99.90;;;;;;5053069;28;20080;-64
2021/09/06 06:13:42;;;;;;;4.47;3.13;;;14.60;99.90;;;;;;5052535;28;20068;-63
2021/09/06 06:16:08;;;;;;;5.45;3.75;;;14.80;99.90;;;;;;5052610;28;20139;-65
2021/09/06 06:18:36;;;;;;;4.40;3.72;;;15.10;99.90;;;;;;5053142;28;20081;-62
2021/09/06 06:21:03;;;;;;;3.78;3.33;;;15.20;99.90;;;;;;5052557;28;20084;-64
2021/09/06 06:23:29;;;;;;;6.00;3.65;;;15.30;99.90;;;;;;5052341;28;20055;-63
2021/09/06 06:25:57;;;;;;;4.18;3.42;;;15.60;99.90;;;;;;5065341;28;20381;-64
2021/09/06 06:28:23;;;;;;;4.28;3.80;;;15.80;99.90;;;;;;5066437;28;20554;-63
2021/09/06 06:30:50;;;;;;;3.25;2.95;;;16.10;99.90;;;;;;5049099;28;20076;-62
2021/09/06 06:33:17;;;;;;;6.57;4.15;;;16.40;99.90;;;;;;5032367;28;20519;-67
2021/09/06 06:35:45;;;;;;;28.73;16.42;;;16.70;99.90;;;;;;5035535;28;20069;-61
2021/09/06 06:38:11;;;;;;;15.70;7.32;;;17.10;99.90;;;;;;5052561;28;20132;-68
2021/09/06 06:40:38;;;;;;;30.50;18.08;;;17.20;99.90;;;;;;5052402;28;20079;-66
2021/09/06 06:43:05;;;;;;;11.88;5.95;;;17.50;99.90;;;;;;5051842;28;20504;-66
2021/09/06 06:45:31;;;;;;;6.72;4.20;;;17.60;99.90;;;;;;5035763;28;20477;-65
2021/09/06 06:47:58;;;;;;;6.72;4.25;;;18.00;99.90;;;;;;5032370;28;20457;-64
2021/09/06 06:50:25;;;;;;;6.32;4.55;;;17.80;99.90;;;;;;5032399;28;20123;-65
2021/09/06 06:52:54;;;;;;;9.75;5.97;;;17.90;99.90;;;;;;5043313;28;20040;-61
2021/09/06 06:55:21;;;;;;;4.03;3.55;;;18.20;99.90;;;;;;5071969;28;20056;-64
2021/09/06 06:57:47;;;;;;;6.30;3.85;;;18.50;99.90;;;;;;5058337;28;20069;-66
2021/09/06 07:00:15;;;;;;;3.92;3.55;;;18.60;99.90;;;;;;5038324;28;20515;-65
2021/09/06 07:02:41;;;;;;;6.82;4.72;;;19.20;99.90;;;;;;5032276;28;20041;-67
2021/09/06 07:05:09;;;;;;;6.47;3.95;;;19.30;99.90;;;;;;5036255;28;20068;-65
2021/09/06 07:07:36;;;;;;;3.55;2.88;;;19.60;99.90;;;;;;5052816;28;20091;-68
2021/09/06 07:10:05;;;;;;;6.35;4.18;;;19.50;99.90;;;;;;5055104;28;20098;-68
2021/09/06 07:12:31;;;;;;;9.43;4.53;;;19.30;99.90;;;;;;5053534;28;20045;-66
2021/09/06 07:14:58;;;;;;;5.60;3.80;;;19.70;99.90;;;;;;5051095;28;20041;-64
2021/09/06 07:17:24;;;;;;;6.70;5.22;;;19.80;99.90;;;;;;5051900;28;20072;-66
2021/09/06 07:19:51;;;;;;;7.85;5.85;;;20.10;99.80;;;;;;5051755;28;20083;-65
2021/09/06 07:22:18;;;;;;;6.97;4.93;;;20.10;98.90;;;;;;5070314;28;20060;-64
2021/09/06 07:24:44;;;;;;;5.32;3.60;;;20.50;98.00;;;;;;5071318;28;20456;-64
2021/09/06 07:27:12;;;;;;;3.50;3.20;;;20.50;97.20;;;;;;5053887;28;20136;-62
2021/09/06 07:29:39;;;;;;;5.35;3.50;;;20.70;96.10;;;;;;5049319;28;20520;-64
2021/09/06 07:32:06;;;;;;;11.85;6.85;;;21.00;94.80;;;;;;5031599;28;20531;-69
2021/09/06 07:34:35;;;;;;;9.55;5.85;;;20.90;94.70;;;;;;5031131;28;20041;-68
2021/09/06 07:37:02;;;;;;;6.80;3.47;;;21.10;95.40;;;;;;5036562;28;20040;-68
2021/09/06 07:39:28;;;;;;;3.67;3.35;;;21.30;93.40;;;;;;5051815;28;20074;-68
2021/09/06 07:41:55;;;;;;;12.85;8.15;;;20.90;93.90;;;;;;5051726;28;20080;-67
2021/09/06 07:44:23;;;;;;;16.92;10.27;;;21.00;93.90;;;;;;5050361;28;20523;-63
2021/09/06 07:46:50;;;;;;;8.90;5.20;;;21.50;93.50;;;;;;5051565;28;20073;-60
2021/09/06 07:49:17;;;;;;;10.40;6.63;;;21.90;92.70;;;;;;5051284;28;20049;-65
2021/09/06 07:51:46;;;;;;;6.30;3.97;;;22.30;91.50;;;;;;5051283;28;20081;-61
2021/09/06 07:54:12;;;;;;;5.90;4.15;;;22.70;89.10;;;;;;5059828;28;20045;-66
2021/09/06 07:56:39;;;;;;;6.40;4.10;;;22.40;90.00;;;;;;5047630;28;20065;-66
2021/09/06 07:59:05;;;;;;;5.60;4.03;;;22.30;88.90;;;;;;5051422;28;20044;-67
2021/09/06 08:01:33;;;;;;;4.15;3.45;;;22.50;89.80;;;;;;5051248;28;20041;-65
2021/09/06 08:04:00;;;;;;;5.85;4.35;;;22.50;87.20;;;;;;5050924;28;20065;-68
2021/09/06 08:06:26;;;;;;;5.75;3.92;;;22.30;88.60;;;;;;5051361;28;20147;-69
2021/09/06 08:08:53;;;;;;;4.82;4.30;;;22.10;88.60;;;;;;5050673;28;20082;-64
2021/09/06 08:11:19;;;;;;;5.53;3.65;;;22.00;90.40;;;;;;5050567;28;20087;-65
2021/09/06 08:13:46;;;;;;;5.25;4.05;;;22.50;89.10;;;;;;5051015;28;20076;-66
2021/09/06 08:16:13;;;;;;;3.63;3.33;;;22.20;88.90;;;;;;5057106;28;20491;-64
2021/09/06 08:18:40;;;;;;;5.68;4.13;;;22.90;85.90;;;;;;5053259;28;20512;-66
2021/09/06 08:21:07;;;;;;;11.05;4.32;;;22.80;85.60;;;;;;5053570;28;20077;-66
2021/09/06 08:23:34;;;;;;;8.07;5.38;;;23.40;85.60;;;;;;5052814;28;20064;-64
2021/09/06 08:26:01;;;;;;;8.02;5.28;;;24.30;82.40;;;;;;5052839;28;20069;-65
2021/09/06 08:28:28;;;;;;;5.88;4.22;;;24.80;81.60;;;;;;5057252;28;20460;-66
2021/09/06 08:30:54;;;;;;;4.00;3.40;;;24.10;80.70;;;;;;5056525;28;20073;-65
2021/09/06 08:33:21;;;;;;;7.47;5.90;;;24.30;80.20;;;;;;5056410;28;20079;-65
2021/09/06 08:35:49;;;;;;;7.35;4.57;;;24.90;79.70;;;;;;5055914;28;20481;-66
2021/09/06 08:38:16;;;;;;;7.25;5.30;;;25.00;76.40;;;;;;5054777;28;20167;-67
2021/09/06 08:40:43;;;;;;;5.63;4.05;;;24.10;79.50;;;;;;5043529;28;20075;-64
2021/09/06 08:43:10;;;;;;;5.75;4.50;;;24.60;77.80;;;;;;5034155;28;20104;-64
2021/09/06 08:45:37;;;;;;;8.43;4.15;;;23.90;79.20;;;;;;5037899;28;20037;-63
2021/09/06 08:48:05;;;;;;;6.25;3.47;;;24.00;79.70;;;;;;5054709;28;20053;-64
2021/09/06 08:50:32;;;;;;;5.07;3.67;;;24.10;78.40;;;;;;5041486;28;20081;-64
2021/09/06 08:53:01;;;;;;;6.05;5.00;;;24.40;78.50;;;;;;5038357;28;20072;-66
2021/09/06 08:55:28;;;;;;;10.70;4.55;;;24.90;79.50;;;;;;5073960;28;20068;-64
2021/09/06 08:57:55;;;;;;;4.80;3.92;;;25.70;76.30;;;;;;5074357;28;20075;-59
2021/09/06 09:00:27;;;;;;;7.03;5.10;;;24.90;75.70;;;;;;5070595;28;20049;-64
2021/09/06 09:02:54;;;;;;;8.18;5.05;;;25.20;76.70;;;;;;5054283;28;20520;-67
2021/09/06 09:05:20;;;;;;;7.97;6.35;;;25.70;74.20;;;;;;5058139;28;20099;-64
2021/09/06 09:07:47;;;;;;;12.25;7.28;;;25.90;74.80;;;;;;5050741;28;20082;-64
2021/09/06 09:10:27;;;;;;;5.30;4.80;;;26.90;73.90;;;;;;5034234;28;20080;-64
2021/09/06 09:13:04;;;;;;;5.78;4.47;;;26.80;71.00;;;;;;5044001;28;20394;-64
2021/09/06 09:15:31;;;;;;;6.78;5.20;;;26.20;72.50;;;;;;5053865;28;20122;-67
2021/09/06 09:17:57;;;;;;;7.18;4.18;;;26.00;73.10;;;;;;5066455;28;20127;-70
2021/09/06 09:20:36;;;;;;;9.27;6.45;;;26.50;73.70;;;;;;5065585;28;20041;-70
2021/09/06 09:23:04;;;;;;;5.80;3.80;;;27.20;71.30;;;;;;5052537;28;20118;-64
2021/09/06 09:25:33;;;;;;;7.32;5.28;;;27.00;70.50;;;;;;5034066;28;20395;-67
2021/09/06 09:28:00;;;;;;;9.77;7.57;;;27.50;69.20;;;;;;5034474;28;20045;-66
2021/09/06 09:30:28;;;;;;;9.23;5.65;;;28.20;68.00;;;;;;5046927;28;20076;-66
2021/09/06 09:33:06;;;;;;;13.32;8.32;;;28.50;67.60;;;;;;5053649;28;20514;-66
2021/09/06 09:35:32;;;;;;;8.55;5.07;;;28.20;67.50;;;;;;5039985;28;20076;-65
2021/09/06 09:38:01;;;;;;;6.65;4.80;;;28.70;65.60;;;;;;5045385;28;20090;-68
2021/09/06 09:40:34;;;;;;;6.50;4.68;;;28.60;65.80;;;;;;5040985;28;20046;-62
2021/09/06 09:43:00;;;;;;;7.65;5.93;;;28.70;63.80;;;;;;5033592;28;20103;-63
2021/09/06 09:45:27;;;;;;;7.13;5.05;;;28.20;64.40;;;;;;5061751;28;20068;-64
2021/09/06 09:47:55;;;;;;;4.93;4.10;;;28.20;64.80;;;;;;5070961;28;20417;-63
2021/09/06 09:50:23;;;;;;;9.02;4.45;;;27.90;65.00;;;;;;5053625;28;20363;-65
2021/09/06 09:52:52;;;;;;;6.93;6.18;;;28.20;65.70;;;;;;5053216;28;20083;-64
2021/09/06 09:55:19;;;;;;;6.82;5.28;;;28.20;65.60;;;;;;5052816;28;20075;-64
2021/09/06 09:57:47;;;;;;;9.10;5.65;;;27.50;69.20;;;;;;5053369;28;20538;-64
2021/09/06 10:00:15;;;;;;;9.98;7.05;;;27.90;67.00;;;;;;5053286;28;20068;-63
2021/09/06 10:02:47;;;;;;;7.65;4.75;;;28.30;66.20;;;;;;5054228;28;20131;-63
2021/09/06 10:05:14;;;;;;;9.45;5.07;;;29.10;64.40;;;;;;5052442;28;20080;-66
2021/09/06 10:07:47;;;;;;;5.45;4.43;;;28.00;64.60;;;;;;5053164;28;20087;-64
2021/09/06 10:10:18;;;;;;;5.72;5.07;;;28.60;66.00;;;;;;5053259;28;20047;-65
2021/09/06 10:12:45;;;;;;;;;;;28.90;63.80;;;;;;5053460;28;20676;-63
2021/09/06 10:15:14;;;;;;;6.35;5.35;;;28.50;63.20;;;;;;5052287;28;20414;-65
2021/09/06 10:17:47;;;;;;;7.55;5.85;;;27.50;67.00;;;;;;5052876;28;20135;-65
2021/09/06 10:20:18;;;;;;;6.13;4.65;;;28.50;65.80;;;;;;5052918;28;20094;-63
2021/09/06 10:22:46;;;;;;;7.90;5.93;;;28.70;64.00;;;;;;5053029;28;20102;-64
2021/09/06 10:25:18;;;;;;;7.95;5.50;;;28.60;65.10;;;;;;5053369;28;20071;-64
2021/09/06 10:27:52;;;;;;;7.32;5.68;;;28.90;64.70;;;;;;5053275;28;20091;-66
2021/09/06 10:30:20;;;;;;;9.88;7.13;;;29.20;62.60;;;;;;5060349;28;20072;-65
2021/09/06 10:32:49;;;;;;;6.35;5.68;;;29.10;64.80;;;;;;5072721;28;20111;-64
2021/09/06 10:35:20;;;;;;;8.45;6.32;;;29.60;64.40;;;;;;5056961;28;20055;-64
2021/09/06 10:37:47;;;;;;;16.08;11.27;;;30.10;62.00;;;;;;5052618;28;20049;-64
2021/09/06 10:40:26;;;;;;;9.57;7.15;;;31.10;60.20;;;;;;5052468;28;20463;-64
2021/09/06 10:42:53;;;;;;;6.38;5.78;;;31.70;59.60;;;;;;5052321;28;20076;-65
2021/09/06 10:45:22;;;;;;;7.18;4.72;;;31.40;59.50;;;;;;5052240;28;20450;-65
2021/09/06 10:48:01;;;;;;;16.38;11.93;;;29.70;59.50;;;;;;5052358;28;20071;-66
2021/09/06 10:50:29;;;;;;;18.95;10.90;;;31.20;59.80;;;;;;5051260;28;20064;-63
2021/09/06 10:52:56;;;;;;;9.30;6.97;;;31.30;60.30;;;;;;5052284;28;20045;-63
2021/09/06 10:55:22;;;;;;;10.30;7.65;;;31.40;59.20;;;;;;5051871;28;20088;-64
2021/09/06 10:57:49;;;;;;;8.77;7.38;;;31.80;58.60;;;;;;5056977;28;20076;-64
2021/09/06 11:00:19;;;;;;;6.10;5.32;;;32.10;58.00;;;;;;5071982;28;20076;-64
2021/09/06 11:02:49;;;;;;;6.95;5.45;;;32.70;56.00;;;;;;5072007;28;20052;-62
2021/09/06 11:05:18;;;;;;;5.55;5.00;;;32.30;56.20;;;;;;5065158;28;20052;-64
2021/09/06 11:07:45;;;;;;;5.82;5.07;;;31.90;57.20;;;;;;5052304;28;20041;-64
2021/09/06 11:10:14;;;;;;;9.55;6.85;;;30.60;58.60;;;;;;5051846;28;20547;-63
2021/09/06 11:12:41;;;;;;;6.85;5.28;;;30.30;60.70;;;;;;5051761;28;20048;-65
2021/09/06 11:15:08;;;;;;;6.97;5.13;;;30.60;58.20;;;;;;5051264;28;20080;-62
2021/09/06 11:17:35;;;;;;;8.48;5.38;;;31.00;57.70;;;;;;5060890;28;20076;-65
2021/09/06 11:20:04;;;;;;;7.53;5.30;;;31.10;58.00;;;;;;5061706;28;20072;-63
2021/09/06 11:22:31;;;;;;;10.02;6.22;;;30.90;57.80;;;;;;5051943;28;20041;-63
2021/09/06 11:25:01;;;;;;;6.38;5.35;;;31.70;57.50;;;;;;5051271;28;20076;-63
2021/09/06 11:27:30;;;;;;;8.00;5.88;;;32.60;57.60;;;;;;5051571;28;20076;-63
2021/09/06 11:29:57;;;;;;;7.50;6.53;;;31.10;55.00;;;;;;5051462;28;20189;-63
2021/09/06 11:32:24;;;;;;;7.60;6.30;;;31.30;57.10;;;;;;5051924;28;20294;-63
2021/09/06 11:35:01;;;;;;;5.57;5.05;;;30.80;55.40;;;;;;5050951;28;20065;-64
2021/09/06 11:37:29;;;;;;;7.32;5.88;;;31.50;55.90;;;;;;5051453;28;20045;-62
2021/09/06 11:39:55;;;;;;;8.15;5.80;;;31.70;55.40;;;;;;5051579;28;20095;-63
2021/09/06 11:42:22;;;;;;;8.15;5.78;;;32.00;55.60;;;;;;5051364;28;20068;-63
2021/09/06 11:44:49;;;;;;;8.80;6.18;;;31.70;55.40;;;;;;5051178;28;20492;-63
2021/09/06 11:47:16;;;;;;;8.77;5.78;;;31.90;54.10;;;;;;5051615;28;20069;-63
2021/09/06 11:49:52;;;;;;;8.18;6.53;;;31.30;54.50;;;;;;5051508;28;20076;-64
2021/09/06 11:52:30;;;;;;;6.53;5.20;;;31.10;56.90;;;;;;5051198;28;20471;-64
2021/09/06 11:54:57;;;;;;;7.90;6.05;;;29.20;56.50;;;;;;5050772;28;20049;-64
2021/09/06 11:57:25;;;;;;;9.57;5.63;;;28.80;58.80;;;;;;5051196;28;20061;-63
2021/09/06 11:59:52;;;;;;;7.80;5.70;;;29.70;57.30;;;;;;5051214;28;20049;-64
2021/09/06 12:02:19;;;;;;;7.85;6.13;;;30.60;56.10;;;;;;5054159;28;20041;-64
2021/09/06 12:04:46;;;;;;;8.57;5.53;;;30.50;55.80;;;;;;5054938;28;20060;-64
2021/09/06 12:07:17;;;;;;;11.02;6.53;;;30.40;57.50;;;;;;5055382;28;20051;-66
2021/09/06 12:09:45;;;;;;;8.98;5.35;;;31.10;56.30;;;;;;5055319;28;20045;-66
2021/09/06 12:12:19;;;;;;;9.73;6.43;;;30.20;54.90;;;;;;5055128;28;20087;-66
2021/09/06 12:14:46;;;;;;;7.75;6.65;;;29.90;57.20;;;;;;5054797;28;20076;-63
2021/09/06 12:17:13;;;;;;;6.13;5.28;;;30.60;57.40;;;;;;5061031;28;20385;-64
2021/09/06 12:19:43;;;;;;;6.85;5.50;;;31.50;58.60;;;;;;5075267;28;20094;-64
2021/09/06 12:22:14;;;;;;;;;;;32.50;53.90;;;;;;5075464;28;20106;-66
2021/09/06 12:24:42;;;;;;;6.93;5.35;;;31.40;53.50;;;;;;5074454;28;20295;-65
2021/09/06 12:27:12;;;;;;;8.85;5.78;;;30.80;53.90;;;;;;5068186;28;20084;-64
2021/09/06 12:29:40;;;;;;;7.88;6.18;;;30.90;53.90;;;;;;5054964;28;20052;-65
2021/09/06 12:32:07;;;;;;;12.35;9.23;;;30.20;55.90;;;;;;5054850;28;20084;-63
2021/09/06 12:34:35;;;;;;;13.43;9.68;;;31.00;56.60;;;;;;5054535;28;20045;-63
2021/09/06 12:37:03;;;;;;;8.60;6.00;;;32.30;55.80;;;;;;5054737;28;20052;-63
2021/09/06 12:39:32;;;;;;;6.43;5.40;;;32.80;54.40;;;;;;5054513;28;20501;-63
2021/09/06 12:42:00;;;;;;;6.57;5.82;;;32.90;54.20;;;;;;5054531;28;20082;-64
2021/09/06 12:44:28;;;;;;;8.45;6.10;;;33.00;50.90;;;;;;5054452;28;20080;-62
2021/09/06 12:46:55;;;;;;;6.53;5.50;;;32.60;52.80;;;;;;5074312;28;20079;-62